sensor_id;sensor_type;location;lat;lon;timestamp;pressure;altitude;pressure_sealevel;temperature;humidity
59110;BME280;44895;47.438;18.978;2023-02-14T00:02:53;101831.50;;;0.70;100.00
59110;BME280;44895;47.438;18.978;2023-02-14T00:05:56;101825.78;;;0.88;100.00
59110;BME280;44895;47.438;18.978;2023-02-14T00:09:01;101823.94;;;1.25;100.00
59110;BME280;44895;47.438;18.978;2023-02-14T00:12:04;101815.41;;;1.37;100.00
59110;BME280;44895;47.438;18.978;2023-02-14T00:15:08;101816.22;;;1.52;100.00
59110;BME280;44895;47.438;18.978;2023-02-14T00:18:24;101820.72;;;1.73;100.00
59110;BME280;44895;47.438;18.978;2023-02-14T00:21:48;101808.88;;;1.61;100.00
59110;BME280;44895;47.438;18.978;2023-02-14T00:24:52;101810.31;;;1.85;100.00
59110;BME280;44895;47.438;18.978;2023-02-14T00:27:56;101812.56;;;1.82;100.00
59110;BME280;44895;47.438;18.978;2023-02-14T00:31:00;101815.28;;;1.88;100.00
59110;BME280;44895;47.438;18.978;2023-02-14T00:34:05;101811.28;;;1.77;100.00
59110;BME280;44895;47.438;18.978;2023-02-14T00:37:08;101811.47;;;1.76;100.00
59110;BME280;44895;47.438;18.978;2023-02-14T00:40:13;101806.94;;;1.76;100.00
59110;BME280;44895;47.438;18.978;2023-02-14T00:43:17;101799.41;;;1.87;100.00
59110;BME280;44895;47.438;18.978;2023-02-14T00:46:22;101807.59;;;2.07;100.00
59110;BME280;44895;47.438;18.978;2023-02-14T00:49:25;101805.94;;;2.06;100.00
59110;BME280;44895;47.438;18.978;2023-02-14T00:52:30;101817.63;;;2.26;100.00
59110;BME280;44895;47.438;18.978;2023-02-14T00:55:34;101815.59;;;2.28;100.00
59110;BME280;44895;47.438;18.978;2023-02-14T00:58:39;101809.00;;;2.31;100.00
59110;BME280;44895;47.438;18.978;2023-02-14T01:01:42;101811.16;;;2.14;100.00
59110;BME280;44895;47.438;18.978;2023-02-14T01:04:46;101799.16;;;1.82;100.00
59110;BME280;44895;47.438;18.978;2023-02-14T01:07:50;101807.16;;;1.75;100.00
59110;BME280;44895;47.438;18.978;2023-02-14T01:10:54;101805.41;;;1.89;100.00
59110;BME280;44895;47.438;18.978;2023-02-14T01:13:58;101796.56;;;1.45;100.00
59110;BME280;44895;47.438;18.978;2023-02-14T01:17:02;101792.66;;;1.26;100.00
59110;BME280;44895;47.438;18.978;2023-02-14T01:20:06;101795.03;;;1.36;100.00
59110;BME280;44895;47.438;18.978;2023-02-14T01:23:10;101789.78;;;1.27;100.00
59110;BME280;44895;47.438;18.978;2023-02-14T01:26:15;101791.94;;;1.17;100.00
59110;BME280;44895;47.438;18.978;2023-02-14T01:29:19;101793.66;;;1.25;100.00
59110;BME280;44895;47.438;18.978;2023-02-14T01:32:22;101790.03;;;1.11;100.00
59110;BME280;44895;47.438;18.978;2023-02-14T01:35:27;101770.97;;;0.99;100.00
59110;BME280;44895;47.438;18.978;2023-02-14T01:38:31;101771.03;;;1.06;100.00
59110;BME280;44895;47.438;18.978;2023-02-14T01:41:36;101782.06;;;1.18;100.00
59110;BME280;44895;47.438;18.978;2023-02-14T01:47:52;101778.06;;;1.28;100.00
59110;BME280;44895;47.438;18.978;2023-02-14T01:50:56;101776.28;;;1.57;100.00
59110;BME280;44895;47.438;18.978;2023-02-14T01:54:01;101776.97;;;1.66;100.00
59110;BME280;44895;47.438;18.978;2023-02-14T01:57:08;101780.59;;;1.80;100.00
59110;BME280;44895;47.438;18.978;2023-02-14T02:00:15;101781.66;;;1.86;100.00
59110;BME280;44895;47.438;18.978;2023-02-14T02:03:51;101774.09;;;1.68;100.00
59110;BME280;44895;47.438;18.978;2023-02-14T02:07:02;101775.69;;;1.62;100.00
59110;BME280;44895;47.438;18.978;2023-02-14T02:10:08;101766.91;;;1.46;100.00
59110;BME280;44895;47.438;18.978;2023-02-14T02:13:16;101769.38;;;1.48;100.00
59110;BME280;44895;47.438;18.978;2023-02-14T02:46:48;101765.31;;;0.57;100.00
59110;BME280;44895;47.438;18.978;2023-02-14T02:50:10;101760.84;;;0.64;100.00
59110;BME280;44895;47.438;18.978;2023-02-14T02:53:47;101758.97;;;0.43;100.00
59110;BME280;44895;47.438;18.978;2023-02-14T02:56:54;101761.97;;;0.55;100.00
59110;BME280;44895;47.438;18.978;2023-02-14T03:00:02;101753.59;;;0.43;100.00
59110;BME280;44895;47.438;18.978;2023-02-14T03:03:07;101750.81;;;0.37;100.00
59110;BME280;44895;47.438;18.978;2023-02-14T03:06:30;101745.94;;;0.25;100.00
59110;BME280;44895;47.438;18.978;2023-02-14T03:19:24;101760.34;;;0.24;100.00
59110;BME280;44895;47.438;18.978;2023-02-14T03:23:37;101751.66;;;0.22;100.00
59110;BME280;44895;47.438;18.978;2023-02-14T03:26:35;101743.91;;;0.12;100.00
59110;BME280;44895;47.438;18.978;2023-02-14T03:30:02;101743.63;;;-0.08;100.00
59110;BME280;44895;47.438;18.978;2023-02-14T03:33:38;101750.72;;;-0.15;100.00
59110;BME280;44895;47.438;18.978;2023-02-14T03:36:55;101746.66;;;-0.11;100.00
59110;BME280;44895;47.438;18.978;2023-02-14T03:40:14;101750.59;;;-0.22;100.00
59110;BME280;44895;47.438;18.978;2023-02-14T03:43:25;101749.63;;;-0.06;100.00
59110;BME280;44895;47.438;18.978;2023-02-14T03:46:39;101748.03;;;-0.15;100.00
59110;BME280;44895;47.438;18.978;2023-02-14T03:49:50;101744.19;;;-0.12;100.00
59110;BME280;44895;47.438;18.978;2023-02-14T03:52:57;101760.09;;;-0.04;100.00
59110;BME280;44895;47.438;18.978;2023-02-14T03:59:13;101757.25;;;-0.18;100.00
59110;BME280;44895;47.438;18.978;2023-02-14T04:02:28;101753.00;;;-0.12;100.00
59110;BME280;44895;47.438;18.978;2023-02-14T04:05:34;101748.66;;;-0.13;100.00
59110;BME280;44895;47.438;18.978;2023-02-14T04:08:38;101751.00;;;-0.10;100.00
59110;BME280;44895;47.438;18.978;2023-02-14T04:11:42;101751.50;;;-0.29;100.00
59110;BME280;44895;47.438;18.978;2023-02-14T04:14:46;101751.03;;;-0.33;100.00
59110;BME280;44895;47.438;18.978;2023-02-14T04:17:50;101746.09;;;-0.21;100.00
59110;BME280;44895;47.438;18.978;2023-02-14T04:21:12;101727.50;;;0.01;100.00
59110;BME280;44895;47.438;18.978;2023-02-14T04:24:16;101731.94;;;0.08;100.00
59110;BME280;44895;47.438;18.978;2023-02-14T04:27:19;101735.44;;;-0.44;100.00
59110;BME280;44895;47.438;18.978;2023-02-14T04:30:23;101741.03;;;-0.16;100.00
59110;BME280;44895;47.438;18.978;2023-02-14T04:33:28;101745.00;;;-0.12;100.00
59110;BME280;44895;47.438;18.978;2023-02-14T04:36:31;101751.06;;;-0.18;100.00
59110;BME280;44895;47.438;18.978;2023-02-14T04:39:35;101743.44;;;-0.21;100.00
59110;BME280;44895;47.438;18.978;2023-02-14T04:42:38;101757.84;;;-0.30;100.00
59110;BME280;44895;47.438;18.978;2023-02-14T04:45:43;101756.53;;;0.04;100.00
59110;BME280;44895;47.438;18.978;2023-02-14T04:48:46;101744.00;;;-0.11;100.00
59110;BME280;44895;47.438;18.978;2023-02-14T04:51:50;101754.22;;;0.01;100.00
59110;BME280;44895;47.438;18.978;2023-02-14T04:54:54;101750.53;;;-0.13;100.00
59110;BME280;44895;47.438;18.978;2023-02-14T04:57:58;101748.59;;;-0.05;100.00
59110;BME280;44895;47.438;18.978;2023-02-14T05:01:02;101738.41;;;-0.01;100.00
59110;BME280;44895;47.438;18.978;2023-02-14T05:04:07;101745.56;;;-0.02;100.00
59110;BME280;44895;47.438;18.978;2023-02-14T05:07:10;101738.94;;;-0.06;100.00
59110;BME280;44895;47.438;18.978;2023-02-14T05:10:14;101743.06;;;-0.18;100.00
59110;BME280;44895;47.438;18.978;2023-02-14T05:13:18;101741.69;;;0.01;100.00
59110;BME280;44895;47.438;18.978;2023-02-14T05:16:22;101748.22;;;-0.02;100.00
59110;BME280;44895;47.438;18.978;2023-02-14T05:19:26;101739.69;;;0.18;100.00
59110;BME280;44895;47.438;18.978;2023-02-14T05:22:30;101741.53;;;0.03;100.00
59110;BME280;44895;47.438;18.978;2023-02-14T05:25:33;101760.06;;;-0.19;100.00
59110;BME280;44895;47.438;18.978;2023-02-14T05:28:37;101748.38;;;-0.18;100.00
59110;BME280;44895;47.438;18.978;2023-02-14T05:31:43;101756.06;;;-0.15;100.00
59110;BME280;44895;47.438;18.978;2023-02-14T05:34:46;101760.97;;;-0.27;100.00
59110;BME280;44895;47.438;18.978;2023-02-14T05:37:50;101758.34;;;-0.12;100.00
59110;BME280;44895;47.438;18.978;2023-02-14T05:40:54;101754.41;;;0.14;100.00
59110;BME280;44895;47.438;18.978;2023-02-14T05:43:58;101747.84;;;-0.13;100.00
59110;BME280;44895;47.438;18.978;2023-02-14T05:47:01;101765.13;;;-0.24;100.00
59110;BME280;44895;47.438;18.978;2023-02-14T05:50:06;101763.78;;;-0.20;100.00
59110;BME280;44895;47.438;18.978;2023-02-14T05:53:10;101769.94;;;-0.20;100.00
59110;BME280;44895;47.438;18.978;2023-02-14T05:56:14;101764.13;;;-0.23;100.00
59110;BME280;44895;47.438;18.978;2023-02-14T05:59:18;101765.47;;;-0.42;100.00
59110;BME280;44895;47.438;18.978;2023-02-14T06:02:22;101771.38;;;-0.32;100.00
59110;BME280;44895;47.438;18.978;2023-02-14T06:05:25;101767.19;;;-0.26;100.00
59110;BME280;44895;47.438;18.978;2023-02-14T06:08:29;101777.44;;;-0.38;100.00
59110;BME280;44895;47.438;18.978;2023-02-14T06:11:33;101781.56;;;-0.51;100.00
59110;BME280;44895;47.438;18.978;2023-02-14T06:14:37;101775.56;;;-0.14;100.00
59110;BME280;44895;47.438;18.978;2023-02-14T06:17:40;101771.50;;;-0.25;100.00
59110;BME280;44895;47.438;18.978;2023-02-14T06:20:44;101775.03;;;-0.48;100.00
59110;BME280;44895;47.438;18.978;2023-02-14T06:23:48;101794.13;;;-0.36;100.00
59110;BME280;44895;47.438;18.978;2023-02-14T06:26:53;101790.22;;;-0.25;100.00
59110;BME280;44895;47.438;18.978;2023-02-14T06:29:57;101793.69;;;-0.25;100.00
59110;BME280;44895;47.438;18.978;2023-02-14T06:33:01;101792.72;;;-0.09;100.00
59110;BME280;44895;47.438;18.978;2023-02-14T06:36:04;101799.41;;;-0.28;100.00
59110;BME280;44895;47.438;18.978;2023-02-14T06:39:08;101799.66;;;0.01;100.00
59110;BME280;44895;47.438;18.978;2023-02-14T06:42:12;101803.72;;;-0.04;100.00
59110;BME280;44895;47.438;18.978;2023-02-14T06:45:16;101806.44;;;0.41;100.00
59110;BME280;44895;47.438;18.978;2023-02-14T06:48:19;101810.47;;;0.82;100.00
59110;BME280;44895;47.438;18.978;2023-02-14T06:51:23;101813.59;;;1.01;100.00
59110;BME280;44895;47.438;18.978;2023-02-14T06:54:27;101815.53;;;0.77;100.00
59110;BME280;44895;47.438;18.978;2023-02-14T06:57:30;101816.31;;;1.44;100.00
59110;BME280;44895;47.438;18.978;2023-02-14T07:00:34;101811.22;;;1.49;100.00
59110;BME280;44895;47.438;18.978;2023-02-14T07:03:38;101817.38;;;1.28;100.00
59110;BME280;44895;47.438;18.978;2023-02-14T07:06:42;101812.72;;;1.37;100.00
59110;BME280;44895;47.438;18.978;2023-02-14T07:09:46;101816.00;;;1.32;100.00
59110;BME280;44895;47.438;18.978;2023-02-14T07:12:50;101815.41;;;1.37;100.00
59110;BME280;44895;47.438;18.978;2023-02-14T07:15:54;101812.31;;;1.55;100.00
59110;BME280;44895;47.438;18.978;2023-02-14T07:18:57;101821.97;;;1.34;100.00
59110;BME280;44895;47.438;18.978;2023-02-14T07:22:02;101817.97;;;1.88;100.00
59110;BME280;44895;47.438;18.978;2023-02-14T07:25:06;101813.56;;;2.31;100.00
59110;BME280;44895;47.438;18.978;2023-02-14T07:28:10;101821.47;;;2.87;100.00
59110;BME280;44895;47.438;18.978;2023-02-14T07:31:15;101824.41;;;3.61;100.00
59110;BME280;44895;47.438;18.978;2023-02-14T07:34:19;101811.97;;;5.45;100.00
59110;BME280;44895;47.438;18.978;2023-02-14T07:37:23;101811.56;;;7.16;100.00
59110;BME280;44895;47.438;18.978;2023-02-14T07:40:27;101810.59;;;8.19;100.00
59110;BME280;44895;47.438;18.978;2023-02-14T07:43:32;101814.81;;;7.79;100.00
59110;BME280;44895;47.438;18.978;2023-02-14T07:46:38;101819.72;;;7.59;100.00
59110;BME280;44895;47.438;18.978;2023-02-14T07:49:42;101816.88;;;8.20;100.00
59110;BME280;44895;47.438;18.978;2023-02-14T07:52:46;101820.47;;;8.85;100.00
59110;BME280;44895;47.438;18.978;2023-02-14T07:55:51;101829.31;;;8.56;100.00
59110;BME280;44895;47.438;18.978;2023-02-14T07:58:55;101825.19;;;8.77;100.00
59110;BME280;44895;47.438;18.978;2023-02-14T08:01:59;101837.34;;;8.51;100.00
59110;BME280;44895;47.438;18.978;2023-02-14T08:05:03;101827.53;;;7.91;100.00
59110;BME280;44895;47.438;18.978;2023-02-14T08:08:06;101826.63;;;8.32;100.00
59110;BME280;44895;47.438;18.978;2023-02-14T08:11:11;101827.22;;;8.58;100.00
59110;BME280;44895;47.438;18.978;2023-02-14T08:14:15;101827.63;;;7.84;100.00
59110;BME280;44895;47.438;18.978;2023-02-14T08:17:18;101826.38;;;7.87;100.00
59110;BME280;44895;47.438;18.978;2023-02-14T08:20:22;101830.50;;;8.13;100.00
59110;BME280;44895;47.438;18.978;2023-02-14T08:23:26;101825.28;;;7.88;100.00
59110;BME280;44895;47.438;18.978;2023-02-14T08:26:30;101825.59;;;7.67;100.00
59110;BME280;44895;47.438;18.978;2023-02-14T08:29:35;101823.72;;;7.68;100.00
59110;BME280;44895;47.438;18.978;2023-02-14T08:32:38;101820.75;;;9.00;100.00
59110;BME280;44895;47.438;18.978;2023-02-14T08:35:42;101827.34;;;9.04;100.00
59110;BME280;44895;47.438;18.978;2023-02-14T08:38:46;101824.53;;;8.99;100.00
59110;BME280;44895;47.438;18.978;2023-02-14T08:41:50;101832.50;;;8.41;100.00
59110;BME280;44895;47.438;18.978;2023-02-14T08:44:54;101834.25;;;9.24;100.00
59110;BME280;44895;47.438;18.978;2023-02-14T08:48:09;101836.31;;;8.93;100.00
59110;BME280;44895;47.438;18.978;2023-02-14T08:51:15;101830.59;;;9.18;100.00
59110;BME280;44895;47.438;18.978;2023-02-14T08:54:19;101826.78;;;9.77;100.00
59110;BME280;44895;47.438;18.978;2023-02-14T08:57:23;101822.00;;;9.67;100.00
59110;BME280;44895;47.438;18.978;2023-02-14T09:00:27;101815.78;;;11.83;96.84
59110;BME280;44895;47.438;18.978;2023-02-14T09:03:31;101813.91;;;12.75;87.29
59110;BME280;44895;47.438;18.978;2023-02-14T09:06:37;101823.69;;;11.03;83.07
59110;BME280;44895;47.438;18.978;2023-02-14T09:09:41;101820.63;;;11.21;100.00
59110;BME280;44895;47.438;18.978;2023-02-14T09:12:45;101821.53;;;11.32;91.73
59110;BME280;44895;47.438;18.978;2023-02-14T09:15:48;101819.81;;;12.13;92.10
59110;BME280;44895;47.438;18.978;2023-02-14T09:18:52;101822.34;;;11.05;100.00
59110;BME280;44895;47.438;18.978;2023-02-14T09:21:57;101818.06;;;11.97;91.20
59110;BME280;44895;47.438;18.978;2023-02-14T09:25:00;101817.88;;;11.76;83.54
59110;BME280;44895;47.438;18.978;2023-02-14T09:28:04;101825.41;;;11.36;84.30
59110;BME280;44895;47.438;18.978;2023-02-14T09:31:09;101820.31;;;13.06;78.11
59110;BME280;44895;47.438;18.978;2023-02-14T09:34:14;101813.63;;;13.81;67.59
59110;BME280;44895;47.438;18.978;2023-02-14T09:37:36;101818.22;;;13.39;66.41
59110;BME280;44895;47.438;18.978;2023-02-14T09:41:04;101828.91;;;12.72;70.31
59110;BME280;44895;47.438;18.978;2023-02-14T09:44:35;101831.09;;;12.27;76.42
59110;BME280;44895;47.438;18.978;2023-02-14T09:47:56;101836.34;;;11.41;88.63
59110;BME280;44895;47.438;18.978;2023-02-14T09:51:18;101832.28;;;10.72;97.85
59110;BME280;44895;47.438;18.978;2023-02-14T09:54:26;101831.38;;;10.27;100.00
59110;BME280;44895;47.438;18.978;2023-02-14T10:00:48;101843.19;;;9.70;100.00
59110;BME280;44895;47.438;18.978;2023-02-14T10:10:38;101836.97;;;8.36;100.00
59110;BME280;44895;47.438;18.978;2023-02-14T10:14:00;101845.34;;;8.70;100.00
59110;BME280;44895;47.438;18.978;2023-02-14T10:17:17;101835.78;;;8.67;100.00
59110;BME280;44895;47.438;18.978;2023-02-14T10:20:30;101837.56;;;8.38;100.00
59110;BME280;44895;47.438;18.978;2023-02-14T10:23:38;101835.44;;;8.40;100.00
59110;BME280;44895;47.438;18.978;2023-02-14T10:26:45;101830.88;;;8.64;100.00
59110;BME280;44895;47.438;18.978;2023-02-14T10:29:50;101831.81;;;8.46;100.00
59110;BME280;44895;47.438;18.978;2023-02-14T10:33:22;101829.09;;;8.46;100.00
59110;BME280;44895;47.438;18.978;2023-02-14T10:46:36;101816.56;;;9.50;100.00
59110;BME280;44895;47.438;18.978;2023-02-14T10:49:48;101816.06;;;9.70;100.00
59110;BME280;44895;47.438;18.978;2023-02-14T10:53:30;101808.00;;;9.41;100.00
59110;BME280;44895;47.438;18.978;2023-02-14T10:56:41;101800.53;;;9.83;100.00
59110;BME280;44895;47.438;18.978;2023-02-14T11:00:03;101798.06;;;9.98;100.00
59110;BME280;44895;47.438;18.978;2023-02-14T11:03:11;101802.00;;;9.90;100.00
59110;BME280;44895;47.438;18.978;2023-02-14T11:06:16;101797.31;;;9.52;100.00
59110;BME280;44895;47.438;18.978;2023-02-14T11:09:20;101814.53;;;9.00;100.00
59110;BME280;44895;47.438;18.978;2023-02-14T11:12:38;101800.06;;;9.40;100.00
59110;BME280;44895;47.438;18.978;2023-02-14T11:15:44;101801.00;;;9.62;100.00
59110;BME280;44895;47.438;18.978;2023-02-14T11:19:28;101805.66;;;9.33;100.00
59110;BME280;44895;47.438;18.978;2023-02-14T11:22:32;101793.28;;;9.71;100.00
59110;BME280;44895;47.438;18.978;2023-02-14T11:25:37;101787.59;;;10.24;98.21
59110;BME280;44895;47.438;18.978;2023-02-14T11:28:56;101793.94;;;9.16;97.31
59110;BME280;44895;47.438;18.978;2023-02-14T11:32:21;101792.91;;;8.76;100.00
59110;BME280;44895;47.438;18.978;2023-02-14T11:35:27;101800.72;;;8.25;100.00
59110;BME280;44895;47.438;18.978;2023-02-14T11:38:38;101788.09;;;8.66;100.00
59110;BME280;44895;47.438;18.978;2023-02-14T11:41:53;101794.72;;;8.23;100.00
59110;BME280;44895;47.438;18.978;2023-02-14T11:44:58;101796.38;;;8.00;100.00
59110;BME280;44895;47.438;18.978;2023-02-14T11:48:35;101793.09;;;8.10;100.00
59110;BME280;44895;47.438;18.978;2023-02-14T11:51:43;101785.75;;;8.70;100.00
59110;BME280;44895;47.438;18.978;2023-02-14T11:54:47;101790.41;;;8.86;100.00
59110;BME280;44895;47.438;18.978;2023-02-14T11:57:52;101782.28;;;9.15;100.00
59110;BME280;44895;47.438;18.978;2023-02-14T12:00:58;101780.94;;;9.01;100.00
59110;BME280;44895;47.438;18.978;2023-02-14T12:04:26;101780.03;;;9.41;100.00
59110;BME280;44895;47.438;18.978;2023-02-14T12:07:37;101779.66;;;9.66;100.00
59110;BME280;44895;47.438;18.978;2023-02-14T12:10:41;101775.72;;;9.91;100.00
59110;BME280;44895;47.438;18.978;2023-02-14T12:13:56;101775.38;;;9.87;100.00
59110;BME280;44895;47.438;18.978;2023-02-14T12:17:22;101776.59;;;10.14;97.97
59110;BME280;44895;47.438;18.978;2023-02-14T12:20:37;101766.25;;;10.33;100.00
59110;BME280;44895;47.438;18.978;2023-02-14T12:23:51;101761.03;;;10.70;95.05
59110;BME280;44895;47.438;18.978;2023-02-14T12:27:22;101761.78;;;10.88;87.71
59110;BME280;44895;47.438;18.978;2023-02-14T12:30:32;101759.50;;;9.96;87.87
59110;BME280;44895;47.438;18.978;2023-02-14T12:33:37;101749.69;;;10.73;85.29
59110;BME280;44895;47.438;18.978;2023-02-14T12:43:21;101729.50;;;10.91;85.90
59110;BME280;44895;47.438;18.978;2023-02-14T12:46:43;101730.44;;;10.53;84.44
59110;BME280;44895;47.438;18.978;2023-02-14T13:00:52;101727.34;;;9.54;89.14
59110;BME280;44895;47.438;18.978;2023-02-14T13:21:00;101710.41;;;9.12;100.00
59110;BME280;44895;47.438;18.978;2023-02-14T13:27:24;101728.28;;;8.96;100.00
59110;BME280;44895;47.438;18.978;2023-02-14T13:30:34;101727.81;;;9.00;100.00
59110;BME280;44895;47.438;18.978;2023-02-14T13:33:43;101724.50;;;8.97;100.00
59110;BME280;44895;47.438;18.978;2023-02-14T13:36:49;101727.09;;;8.75;100.00
59110;BME280;44895;47.438;18.978;2023-02-14T13:39:56;101719.91;;;8.69;100.00
59110;BME280;44895;47.438;18.978;2023-02-14T13:43:01;101736.97;;;8.70;100.00
59110;BME280;44895;47.438;18.978;2023-02-14T13:46:05;101724.09;;;8.36;100.00
59110;BME280;44895;47.438;18.978;2023-02-14T13:49:38;101717.78;;;8.71;100.00
59110;BME280;44895;47.438;18.978;2023-02-14T13:52:48;101713.38;;;8.82;100.00
59110;BME280;44895;47.438;18.978;2023-02-14T13:55:52;101710.16;;;8.97;100.00
59110;BME280;44895;47.438;18.978;2023-02-14T13:59:04;101715.13;;;9.17;100.00
59110;BME280;44895;47.438;18.978;2023-02-14T14:24:38;101723.28;;;9.05;100.00
59110;BME280;44895;47.438;18.978;2023-02-14T14:27:45;101719.84;;;9.10;100.00
59110;BME280;44895;47.438;18.978;2023-02-14T14:30:50;101715.50;;;9.09;100.00
59110;BME280;44895;47.438;18.978;2023-02-14T14:33:58;101719.66;;;8.71;100.00
59110;BME280;44895;47.438;18.978;2023-02-14T14:37:05;101710.50;;;8.60;100.00
59110;BME280;44895;47.438;18.978;2023-02-14T14:40:21;101718.16;;;8.63;100.00
59110;BME280;44895;47.438;18.978;2023-02-14T14:43:31;101723.00;;;8.61;100.00
59110;BME280;44895;47.438;18.978;2023-02-14T14:46:36;101711.25;;;8.55;100.00
59110;BME280;44895;47.438;18.978;2023-02-14T14:49:39;101715.72;;;8.38;100.00
59110;BME280;44895;47.438;18.978;2023-02-14T14:52:47;101710.31;;;8.26;100.00
59110;BME280;44895;47.438;18.978;2023-02-14T14:55:51;101701.38;;;8.25;100.00
59110;BME280;44895;47.438;18.978;2023-02-14T14:58:57;101719.31;;;8.14;100.00
59110;BME280;44895;47.438;18.978;2023-02-14T15:02:26;101714.47;;;8.16;100.00
59110;BME280;44895;47.438;18.978;2023-02-14T15:05:35;101710.63;;;8.00;100.00
59110;BME280;44895;47.438;18.978;2023-02-14T15:08:39;101715.06;;;8.19;100.00
59110;BME280;44895;47.438;18.978;2023-02-14T15:11:44;101728.59;;;7.95;100.00
59110;BME280;44895;47.438;18.978;2023-02-14T15:15:13;101710.84;;;7.99;100.00
59110;BME280;44895;47.438;18.978;2023-02-14T15:18:19;101715.09;;;7.83;100.00
59110;BME280;44895;47.438;18.978;2023-02-14T15:21:24;101712.38;;;7.59;100.00
59110;BME280;44895;47.438;18.978;2023-02-14T15:24:29;101719.88;;;7.45;100.00
59110;BME280;44895;47.438;18.978;2023-02-14T15:27:38;101715.25;;;7.22;100.00
59110;BME280;44895;47.438;18.978;2023-02-14T15:30:43;101722.78;;;7.32;100.00
59110;BME280;44895;47.438;18.978;2023-02-14T15:33:48;101714.84;;;7.07;100.00
59110;BME280;44895;47.438;18.978;2023-02-14T15:36:53;101720.72;;;7.15;100.00
59110;BME280;44895;47.438;18.978;2023-02-14T15:40:01;101718.75;;;7.11;100.00
59110;BME280;44895;47.438;18.978;2023-02-14T15:43:29;101723.69;;;6.65;100.00
59110;BME280;44895;47.438;18.978;2023-02-14T15:46:37;101719.81;;;6.61;100.00
59110;BME280;44895;47.438;18.978;2023-02-14T15:49:43;101726.41;;;6.65;100.00
59110;BME280;44895;47.438;18.978;2023-02-14T15:52:49;101723.44;;;6.36;100.00
59110;BME280;44895;47.438;18.978;2023-02-14T15:56:02;101725.47;;;6.22;100.00
59110;BME280;44895;47.438;18.978;2023-02-14T15:59:24;101721.03;;;6.28;100.00
59110;BME280;44895;47.438;18.978;2023-02-14T16:02:34;101725.53;;;5.90;100.00
59110;BME280;44895;47.438;18.978;2023-02-14T16:05:45;101719.66;;;5.49;100.00
59110;BME280;44895;47.438;18.978;2023-02-14T16:08:54;101726.50;;;5.52;100.00
59110;BME280;44895;47.438;18.978;2023-02-14T16:11:58;101739.47;;;5.36;100.00
59110;BME280;44895;47.438;18.978;2023-02-14T16:15:20;101741.06;;;5.12;100.00
59110;BME280;44895;47.438;18.978;2023-02-14T16:18:52;101740.16;;;4.93;100.00
59110;BME280;44895;47.438;18.978;2023-02-14T16:21:59;101750.47;;;4.57;100.00
59110;BME280;44895;47.438;18.978;2023-02-14T16:25:04;101754.47;;;4.87;100.00
59110;BME280;44895;47.438;18.978;2023-02-14T16:28:09;101760.19;;;4.59;100.00
59110;BME280;44895;47.438;18.978;2023-02-14T16:31:15;101751.78;;;4.21;100.00
59110;BME280;44895;47.438;18.978;2023-02-14T16:34:19;101765.03;;;4.16;100.00
59110;BME280;44895;47.438;18.978;2023-02-14T16:37:29;101766.53;;;3.92;100.00
59110;BME280;44895;47.438;18.978;2023-02-14T16:40:34;101773.75;;;3.78;100.00
59110;BME280;44895;47.438;18.978;2023-02-14T16:43:38;101771.69;;;3.67;100.00
59110;BME280;44895;47.438;18.978;2023-02-14T16:46:44;101763.41;;;3.48;100.00
59110;BME280;44895;47.438;18.978;2023-02-14T16:49:50;101776.81;;;3.35;100.00
59110;BME280;44895;47.438;18.978;2023-02-14T16:52:55;101771.25;;;3.30;100.00
59110;BME280;44895;47.438;18.978;2023-02-14T16:56:00;101772.50;;;3.47;100.00
59110;BME280;44895;47.438;18.978;2023-02-14T16:59:04;101783.66;;;3.31;100.00
59110;BME280;44895;47.438;18.978;2023-02-14T17:02:08;101782.38;;;3.26;100.00
59110;BME280;44895;47.438;18.978;2023-02-14T17:05:11;101775.00;;;3.82;100.00
59110;BME280;44895;47.438;18.978;2023-02-14T17:08:16;101786.16;;;3.99;100.00
59110;BME280;44895;47.438;18.978;2023-02-14T17:11:22;101792.56;;;3.98;100.00
59110;BME280;44895;47.438;18.978;2023-02-14T17:14:34;101784.50;;;4.05;100.00
59110;BME280;44895;47.438;18.978;2023-02-14T17:17:40;101788.81;;;4.33;100.00
59110;BME280;44895;47.438;18.978;2023-02-14T17:20:44;101798.16;;;4.10;100.00
59110;BME280;44895;47.438;18.978;2023-02-14T17:23:48;101802.22;;;4.39;100.00
59110;BME280;44895;47.438;18.978;2023-02-14T17:26:52;101790.28;;;4.15;100.00
59110;BME280;44895;47.438;18.978;2023-02-14T17:29:56;101789.19;;;4.43;100.00
59110;BME280;44895;47.438;18.978;2023-02-14T17:33:00;101796.28;;;4.17;100.00
59110;BME280;44895;47.438;18.978;2023-02-14T17:36:09;101801.88;;;4.16;100.00
59110;BME280;44895;47.438;18.978;2023-02-14T17:39:17;101802.69;;;4.23;100.00
59110;BME280;44895;47.438;18.978;2023-02-14T17:42:21;101795.47;;;4.17;100.00
59110;BME280;44895;47.438;18.978;2023-02-14T17:45:26;101801.03;;;4.22;100.00
59110;BME280;44895;47.438;18.978;2023-02-14T17:48:30;101798.53;;;4.20;100.00
59110;BME280;44895;47.438;18.978;2023-02-14T17:51:36;101806.41;;;4.15;100.00
59110;BME280;44895;47.438;18.978;2023-02-14T17:54:41;101801.47;;;4.05;100.00
59110;BME280;44895;47.438;18.978;2023-02-14T17:57:45;101800.22;;;4.15;100.00
59110;BME280;44895;47.438;18.978;2023-02-14T18:00:49;101797.72;;;4.20;100.00
59110;BME280;44895;47.438;18.978;2023-02-14T18:03:53;101793.38;;;3.99;100.00
59110;BME280;44895;47.438;18.978;2023-02-14T18:06:58;101791.09;;;4.09;100.00
59110;BME280;44895;47.438;18.978;2023-02-14T18:10:03;101791.34;;;3.94;100.00
59110;BME280;44895;47.438;18.978;2023-02-14T18:13:07;101781.41;;;3.95;100.00
59110;BME280;44895;47.438;18.978;2023-02-14T18:16:14;101782.44;;;3.87;100.00